createdAt,value
2022-12-26T00:01:13.330Z,100839.47
2022-12-26T00:03:41.336Z,100859.19
2022-12-26T00:06:14.637Z,100854.03
2022-12-26T00:08:42.585Z,100848.16
2022-12-26T00:11:10.541Z,100851.03
2022-12-26T00:13:41.588Z,100852.91
2022-12-26T00:16:10.512Z,100834.88
2022-12-26T00:18:38.542Z,100868.06
2022-12-26T00:21:06.812Z,100870.81
2022-12-26T00:23:36.140Z,100878.78
2022-12-26T00:26:05.252Z,100886.81
2022-12-26T00:28:33.230Z,100891.06
2022-12-26T00:31:04.706Z,100903.41
2022-12-26T00:33:32.603Z,100896.00
2022-12-26T00:36:02.636Z,100905.31
2022-12-26T00:38:30.690Z,100895.94
2022-12-26T00:41:00.026Z,100901.28
2022-12-26T00:43:28.001Z,100905.88
2022-12-26T00:45:55.921Z,100911.19
2022-12-26T00:48:24.025Z,100920.91
2022-12-26T00:50:51.989Z,100917.31
2022-12-26T00:53:19.982Z,100921.63
2022-12-26T00:55:47.851Z,100928.69
2022-12-26T00:58:17.149Z,100931.28
2022-12-26T01:00:45.092Z,100940.84
2022-12-26T01:03:13.300Z,100957.59
2022-12-26T01:05:42.387Z,100964.66
2022-12-26T01:08:20.423Z,100971.66
2022-12-26T01:10:52.769Z,100977.19
2022-12-26T01:13:22.845Z,100983.31
2022-12-26T01:15:51.567Z,100989.75
2022-12-26T01:18:19.628Z,101001.19
2022-12-26T01:20:47.548Z,101005.78
2022-12-26T01:23:15.421Z,101011.03
2022-12-26T01:26:17.358Z,101000.56
2022-12-26T01:28:32.627Z,101002.28
2022-12-26T01:31:02.949Z,101006.69
2022-12-26T01:33:31.062Z,101003.16
2022-12-26T01:35:59.110Z,101007.50
2022-12-26T01:38:27.010Z,101015.47
2022-12-26T01:41:15.603Z,101023.50
2022-12-26T01:43:55.675Z,101023.50
2022-12-26T01:46:25.636Z,101033.38
2022-12-26T01:48:53.549Z,101041.34
2022-12-26T01:51:22.271Z,101043.97
2022-12-26T01:53:51.329Z,101051.06
2022-12-26T01:56:21.133Z,101052.03
2022-12-26T01:58:51.755Z,101068.69
2022-12-26T02:01:19.735Z,101068.56
2022-12-26T02:04:05.358Z,101074.81
2022-12-26T02:06:33.300Z,101080.13
2022-12-26T02:09:01.306Z,101083.53
2022-12-26T02:11:30.542Z,101106.53
2022-12-26T02:13:59.853Z,101094.16
2022-12-26T02:16:27.746Z,101115.25
2022-12-26T02:18:55.673Z,101115.22
2022-12-26T02:21:35.814Z,101117.81
2022-12-26T02:24:23.655Z,101123.19
2022-12-26T02:26:59.523Z,101128.38
2022-12-26T02:29:45.834Z,101134.56
2022-12-26T02:32:17.017Z,101146.81
2022-12-26T02:34:50.887Z,101160.09
2022-12-26T02:37:25.188Z,101160.41
2022-12-26T02:40:02.214Z,101183.16
2022-12-26T02:42:35.187Z,101188.53
2022-12-26T02:45:24.160Z,101197.41
2022-12-26T02:47:55.842Z,101189.66
2022-12-26T02:50:43.084Z,101202.78
2022-12-26T02:53:30.960Z,101212.56
2022-12-26T02:56:18.948Z,101226.88
2022-12-26T02:59:07.030Z,101226.34
2022-12-26T03:01:55.326Z,101223.03
2022-12-26T03:04:42.112Z,101230.34
2022-12-26T03:07:31.618Z,101247.38
2022-12-26T03:10:17.032Z,101236.22
2022-12-26T03:13:03.378Z,101260.81
2022-12-26T03:15:52.347Z,101266.13
2022-12-26T03:18:19.385Z,101274.91
2022-12-26T03:21:08.711Z,101279.41
2022-12-26T03:23:36.642Z,101280.28
2022-12-26T03:26:23.737Z,101292.00
2022-12-26T03:28:51.636Z,101291.31
2022-12-26T03:31:18.551Z,101301.84
2022-12-26T03:34:18.962Z,101300.13
2022-12-26T03:36:57.587Z,101308.19
2022-12-26T03:39:52.202Z,101266.66
2022-12-26T03:42:41.976Z,101304.44
2022-12-26T03:45:46.963Z,101311.66
2022-12-26T03:48:36.550Z,101312.00
2022-12-26T03:51:25.818Z,101319.34
2022-12-26T03:54:14.308Z,101323.03
2022-12-26T03:57:00.129Z,101327.59
2022-12-26T03:59:47.013Z,101331.28
2022-12-26T04:02:32.413Z,101340.19
2022-12-26T04:05:17.722Z,101342.94
2022-12-26T04:08:05.328Z,101344.75
2022-12-26T04:10:53.990Z,101354.63
2022-12-26T04:13:40.788Z,101356.34
2022-12-26T04:16:31.626Z,101357.47
2022-12-26T04:19:25.288Z,101360.06
2022-12-26T04:22:11.981Z,101366.25
2022-12-26T04:25:00.569Z,101366.28
2022-12-26T04:27:47.539Z,101368.03
2022-12-26T04:30:32.855Z,101377.75
2022-12-26T04:33:22.896Z,101389.19
2022-12-26T04:36:09.283Z,101377.81
2022-12-26T04:38:56.520Z,101364.75
2022-12-26T04:41:42.066Z,101391.78
2022-12-26T04:44:11.930Z,101400.63
2022-12-26T04:46:40.944Z,101395.47
2022-12-26T04:49:27.077Z,101412.13
2022-12-26T04:51:56.115Z,101414.84
2022-12-26T04:54:24.142Z,101416.66
2022-12-26T04:56:52.153Z,101421.00
2022-12-26T04:59:21.746Z,101423.66
2022-12-26T05:02:07.213Z,101427.19
2022-12-26T05:04:52.495Z,101426.34
2022-12-26T05:07:39.151Z,101429.00
2022-12-26T05:10:08.622Z,101423.69
2022-12-26T05:12:36.575Z,101427.03
2022-12-26T05:15:06.775Z,101435.06
2022-12-26T05:17:51.936Z,101434.19
2022-12-26T05:20:36.541Z,101440.50
2022-12-26T05:23:22.016Z,101443.22
2022-12-26T05:26:07.491Z,101446.88
2022-12-26T05:28:44.166Z,101444.47
2022-12-26T05:31:14.753Z,101463.81
2022-12-26T05:33:59.897Z,101452.25
2022-12-26T05:36:30.601Z,101469.88
2022-12-26T05:38:58.471Z,101471.53
2022-12-26T05:41:26.344Z,101466.97
2022-12-26T05:43:54.263Z,101460.84
2022-12-26T05:46:23.655Z,101467.09
2022-12-26T05:48:51.643Z,101468.88
2022-12-26T05:51:19.588Z,101478.69
2022-12-26T05:53:48.371Z,101474.34
2022-12-26T05:56:17.886Z,101483.28
2022-12-26T05:58:45.921Z,101478.91
2022-12-26T06:01:14.877Z,101489.47
2022-12-26T06:03:44.467Z,101482.34
2022-12-26T06:06:12.724Z,101491.25
2022-12-26T06:08:40.723Z,101486.88
2022-12-26T06:11:08.818Z,101496.66
2022-12-26T06:13:36.821Z,101496.66
2022-12-26T06:16:08.324Z,101509.09
2022-12-26T06:18:36.236Z,101498.59
2022-12-26T06:21:07.010Z,101506.56
2022-12-26T06:23:35.124Z,101514.53
2022-12-26T06:26:03.079Z,101519.78
2022-12-26T06:28:30.993Z,101525.00
2022-12-26T06:31:03.392Z,101521.31
2022-12-26T06:33:31.459Z,101536.16
2022-12-26T06:36:08.758Z,101528.91
2022-12-26T06:38:36.765Z,101540.22
2022-12-26T06:41:05.880Z,101539.16
2022-12-26T06:43:33.860Z,101543.34
2022-12-26T06:46:02.390Z,101547.66
2022-12-26T06:48:30.638Z,101551.78
2022-12-26T06:50:58.595Z,101537.97
2022-12-26T06:53:27.888Z,101557.72
2022-12-26T06:55:55.765Z,101574.97
2022-12-26T06:58:23.699Z,101573.59
2022-12-26T07:00:51.628Z,101566.75
2022-12-26T07:03:19.510Z,101568.63
2022-12-26T07:05:47.415Z,101571.41
2022-12-26T07:08:15.335Z,101575.03
2022-12-26T07:10:44.601Z,101564.69
2022-12-26T07:13:12.515Z,101575.34
2022-12-26T07:15:40.430Z,101573.84
2022-12-26T07:18:08.319Z,101591.41
2022-12-26T07:20:36.210Z,101586.25
2022-12-26T07:23:04.105Z,101594.94
2022-12-26T07:25:32.277Z,101614.16
2022-12-26T07:28:01.683Z,101604.25
2022-12-26T07:30:29.576Z,101611.09
2022-12-26T07:32:57.518Z,101605.56
2022-12-26T07:35:25.401Z,101609.00
2022-12-26T07:37:53.778Z,101619.31
2022-12-26T07:40:21.657Z,101615.72
2022-12-26T07:42:49.514Z,101634.94
2022-12-26T07:45:18.974Z,101648.09
2022-12-26T07:47:46.954Z,101656.06
2022-12-26T07:50:14.885Z,101670.41
2022-12-26T07:52:42.906Z,101656.53
2022-12-26T07:55:11.200Z,101657.19
2022-12-26T07:57:48.627Z,101665.44
2022-12-26T08:00:20.156Z,101673.59
2022-12-26T08:02:49.626Z,101676.34
2022-12-26T08:05:18.166Z,101687.94
2022-12-26T08:07:47.891Z,101675.72
2022-12-26T08:10:16.152Z,101689.03
2022-12-26T08:12:44.097Z,101689.06
2022-12-26T08:15:12.928Z,101694.41
2022-12-26T08:17:42.190Z,101696.22
2022-12-26T08:20:10.495Z,101704.06
2022-12-26T08:22:39.381Z,101701.34
2022-12-26T08:25:08.459Z,101707.44
2022-12-26T08:27:36.502Z,101713.44
2022-12-26T08:30:05.154Z,101712.41
2022-12-26T08:32:33.027Z,101725.44
2022-12-26T08:35:03.273Z,101723.63
2022-12-26T08:37:31.368Z,101712.09
2022-12-26T08:39:59.248Z,101714.69
2022-12-26T08:42:27.169Z,101710.31
2022-12-26T08:44:55.511Z,101719.94
2022-12-26T08:47:26.555Z,101726.97
2022-12-26T08:49:54.631Z,101727.72
2022-12-26T08:52:23.917Z,101734.72
2022-12-26T08:54:51.834Z,101721.47
2022-12-26T08:57:19.823Z,101725.91
2022-12-26T08:59:47.720Z,101727.84
2022-12-26T09:02:15.743Z,101738.38
2022-12-26T09:04:43.723Z,101735.72
2022-12-26T09:07:11.681Z,101754.19
2022-12-26T09:09:41.139Z,101767.25
2022-12-26T09:12:09.098Z,101765.28
2022-12-26T09:14:37.329Z,101769.31
2022-12-26T09:17:05.570Z,101768.91
2022-12-26T09:19:33.617Z,101774.81
2022-12-26T09:22:19.100Z,101778.00
2022-12-26T09:24:48.582Z,101780.53
2022-12-26T09:27:16.578Z,101790.25
2022-12-26T09:29:45.354Z,101787.59
2022-12-26T09:32:13.277Z,101797.34
2022-12-26T09:34:41.438Z,101800.00
2022-12-26T09:37:09.365Z,101809.78
2022-12-26T09:39:37.297Z,101809.75
2022-12-26T09:42:09.983Z,101803.59
2022-12-26T09:44:44.919Z,101804.56
2022-12-26T09:47:19.588Z,101825.66
2022-12-26T09:49:51.841Z,101827.44
2022-12-26T09:52:23.158Z,101829.13
2022-12-26T09:54:52.534Z,101836.00
2022-12-26T09:57:24.931Z,101830.34
2022-12-26T09:59:55.587Z,101832.75
2022-12-26T10:02:25.524Z,101836.16
2022-12-26T10:04:53.597Z,101846.41
2022-12-26T10:07:27.944Z,101849.72
2022-12-26T10:10:00.985Z,101846.06
2022-12-26T10:12:50.305Z,101851.97
2022-12-26T10:15:30.798Z,101861.56
2022-12-26T10:18:03.515Z,101860.66
2022-12-26T10:20:35.309Z,101860.56
2022-12-26T10:23:14.708Z,101857.78
2022-12-26T10:25:46.731Z,101861.88
2022-12-26T10:28:26.741Z,101867.63
2022-12-26T10:30:54.948Z,101881.38
2022-12-26T10:33:26.795Z,101885.03
2022-12-26T10:35:54.735Z,101888.97
2022-12-26T10:38:28.121Z,101909.44
2022-12-26T10:40:57.329Z,101893.91
2022-12-26T10:43:29.710Z,101898.72
2022-12-26T10:46:12.564Z,101874.09
2022-12-26T10:48:40.494Z,101903.66
2022-12-26T10:51:08.448Z,101904.59
2022-12-26T10:53:36.858Z,101908.09
2022-12-26T10:56:05.668Z,101910.09
2022-12-26T10:58:35.682Z,101907.59
2022-12-26T11:01:33.756Z,101905.81
2022-12-26T11:04:02.574Z,101905.28
2022-12-26T11:06:33.552Z,101919.53
2022-12-26T11:09:01.789Z,101906.47
2022-12-26T11:11:46.136Z,101902.41
2022-12-26T11:14:33.673Z,101905.88
2022-12-26T11:17:04.899Z,101908.88
2022-12-26T11:19:34.317Z,101909.66
2022-12-26T11:22:26.572Z,101908.00
2022-12-26T11:25:14.437Z,101915.38
2022-12-26T11:27:44.060Z,101926.16
2022-12-26T11:30:24.361Z,101917.22
2022-12-26T11:32:53.386Z,101915.59
2022-12-26T11:35:23.514Z,101916.31
2022-12-26T11:37:53.014Z,101918.44
2022-12-26T11:40:22.586Z,101926.13
2022-12-26T11:42:52.095Z,101926.09
2022-12-26T11:45:24.774Z,101925.25
2022-12-26T11:47:52.670Z,101930.81
2022-12-26T11:50:22.168Z,101923.16
2022-12-26T11:52:52.875Z,101927.00
2022-12-26T11:55:29.493Z,101934.03
2022-12-26T11:57:59.057Z,101933.13
2022-12-26T12:00:29.590Z,101932.25
2022-12-26T12:02:57.586Z,101913.69
2022-12-26T12:05:34.235Z,101921.16
2022-12-26T12:08:10.068Z,101926.09
2022-12-26T12:11:06.315Z,101920.31
2022-12-26T12:14:02.043Z,101924.56
2022-12-26T12:16:39.402Z,101915.50
2022-12-26T12:19:17.522Z,101913.00
2022-12-26T12:22:02.024Z,101919.16
2022-12-26T12:24:37.196Z,101922.03
2022-12-26T12:27:11.494Z,101928.63
2022-12-26T12:29:53.550Z,101962.41
2022-12-26T12:32:25.584Z,101973.13
2022-12-26T12:35:16.949Z,101970.19
2022-12-26T12:37:54.109Z,101951.72
2022-12-26T12:40:28.460Z,101960.09
2022-12-26T12:42:59.250Z,101948.94
2022-12-26T12:45:28.361Z,101948.84
2022-12-26T12:48:12.915Z,101954.47
2022-12-26T12:50:44.028Z,101943.38
2022-12-26T12:53:18.380Z,101944.28
2022-12-26T12:56:04.162Z,101939.63
2022-12-26T12:58:40.200Z,101930.00
2022-12-26T13:01:14.023Z,101927.63
2022-12-26T13:03:46.708Z,101917.69
2022-12-26T13:06:16.721Z,101919.34
2022-12-26T13:08:46.123Z,101914.22
2022-12-26T13:11:17.904Z,101920.72
2022-12-26T13:13:53.307Z,101924.69
2022-12-26T13:16:23.532Z,101921.22
2022-12-26T13:18:54.110Z,101919.38
2022-12-26T13:21:22.275Z,101927.91
2022-12-26T13:24:09.265Z,101919.53
2022-12-26T13:26:39.616Z,101924.25
2022-12-26T13:29:17.600Z,101913.34
2022-12-26T13:31:45.725Z,101907.28
2022-12-26T13:34:19.255Z,101927.31
2022-12-26T13:36:47.969Z,101935.09
2022-12-26T13:39:39.829Z,101931.63
2022-12-26T13:42:52.668Z,101948.13
2022-12-26T13:45:49.872Z,101947.53
2022-12-26T13:48:56.238Z,101949.78
2022-12-26T13:51:58.887Z,101945.34
2022-12-26T13:54:28.211Z,101938.78
2022-12-26T13:57:23.517Z,101951.78
2022-12-26T14:00:04.132Z,101955.41
2022-12-26T14:03:20.090Z,101961.81
2022-12-26T14:06:13.547Z,101960.44
2022-12-26T14:08:54.587Z,101959.84
2022-12-26T14:11:32.625Z,101967.94
2022-12-26T14:14:08.286Z,101973.34
2022-12-26T14:16:39.397Z,101971.50
2022-12-26T14:19:13.548Z,101983.81
2022-12-26T14:21:47.589Z,101977.53
2022-12-26T14:24:25.394Z,101991.44
2022-12-26T14:26:56.374Z,101979.78
2022-12-26T14:29:26.370Z,101978.69
2022-12-26T14:32:04.503Z,101985.00
2022-12-26T14:34:41.753Z,101988.47
2022-12-26T14:37:15.689Z,101989.03
2022-12-26T14:39:52.939Z,101988.31
2022-12-26T14:42:40.374Z,101983.13
2022-12-26T14:45:14.808Z,101980.72
2022-12-26T14:47:44.428Z,101996.72
2022-12-26T14:50:38.530Z,101986.28
2022-12-26T14:53:31.758Z,101986.66
2022-12-26T14:56:01.674Z,101993.34
2022-12-26T14:58:43.846Z,101991.75
2022-12-26T15:01:49.859Z,101996.34
2022-12-26T15:04:25.490Z,102007.16
2022-12-26T15:07:15.455Z,102012.50
2022-12-26T15:10:09.378Z,102008.13
2022-12-26T15:13:13.210Z,102003.59
2022-12-26T15:15:48.721Z,102012.63
2022-12-26T15:18:35.310Z,102019.84
2022-12-26T15:21:23.567Z,102025.41
2022-12-26T15:25:08.230Z,102017.66
2022-12-26T15:27:39.827Z,102022.28
2022-12-26T15:30:20.667Z,102026.88
2022-12-26T15:32:55.023Z,102028.72
2022-12-26T15:35:24.449Z,102030.75
2022-12-26T15:38:12.982Z,102036.31
2022-12-26T15:40:44.612Z,102038.28
2022-12-26T15:43:25.873Z,102034.03
2022-12-26T15:46:01.127Z,102042.16
2022-12-26T15:48:41.036Z,102045.75
2022-12-26T15:51:11.129Z,102046.81
2022-12-26T15:53:48.518Z,102045.25
2022-12-26T15:56:43.020Z,102050.59
2022-12-26T15:59:32.703Z,102059.47
2022-12-26T16:02:02.924Z,102063.00
2022-12-26T16:04:32.623Z,102060.78
2022-12-26T16:07:08.320Z,102033.19
2022-12-26T16:09:42.026Z,102066.91
2022-12-26T16:12:23.947Z,102071.47
2022-12-26T16:15:00.140Z,102070.75
2022-12-26T16:17:29.945Z,102065.41
2022-12-26T16:19:58.339Z,102068.16
2022-12-26T16:22:47.370Z,102064.59
2022-12-26T16:25:17.167Z,102066.44
2022-12-26T16:27:45.089Z,102075.94
2022-12-26T16:30:16.220Z,102063.38
2022-12-26T16:32:45.614Z,102063.16
2022-12-26T16:35:19.676Z,102075.41
2022-12-26T16:37:47.608Z,102091.22
2022-12-26T16:40:24.160Z,102084.09
2022-12-26T16:43:00.973Z,102088.88
2022-12-26T16:45:30.024Z,102101.84
2022-12-26T16:47:59.346Z,102105.94
2022-12-26T16:50:28.652Z,102112.66
2022-12-26T16:53:11.588Z,102151.22
2022-12-26T16:55:44.628Z,102146.34
2022-12-26T16:58:15.837Z,102106.25
2022-12-26T17:00:48.581Z,102121.56
2022-12-26T17:03:25.664Z,102122.69
2022-12-26T17:05:53.655Z,102119.38
2022-12-26T17:08:22.155Z,102125.72
2022-12-26T17:10:50.824Z,102123.06
2022-12-26T17:13:21.107Z,102122.19
2022-12-26T17:15:52.511Z,102123.97
2022-12-26T17:18:49.493Z,102122.19
2022-12-26T17:21:27.130Z,102121.28
2022-12-26T17:24:15.543Z,102118.56
2022-12-26T17:26:44.190Z,102109.69
2022-12-26T17:29:36.520Z,102104.38
2022-12-26T17:32:08.300Z,102110.44
2022-12-26T17:34:38.864Z,102101.47
2022-12-26T17:37:18.896Z,102097.84
2022-12-26T17:39:52.365Z,102096.06
2022-12-26T17:42:20.253Z,102116.03
2022-12-26T17:44:48.257Z,102107.84
2022-12-26T17:47:21.889Z,102108.53
2022-12-26T17:49:52.027Z,102097.72
2022-12-26T17:52:21.603Z,102098.47
2022-12-26T17:54:50.357Z,102103.56
2022-12-26T17:57:20.290Z,102109.63
2022-12-26T17:59:48.211Z,102110.47
2022-12-26T18:02:16.231Z,102109.56
2022-12-26T18:04:44.250Z,102115.72
2022-12-26T18:07:16.952Z,102119.25
2022-12-26T18:09:45.387Z,102113.00
2022-12-26T18:12:13.624Z,102119.91
2022-12-26T18:14:41.650Z,102120.66
2022-12-26T18:17:09.637Z,102114.25
2022-12-26T18:19:37.644Z,102116.66
2022-12-26T18:22:06.639Z,102121.84
2022-12-26T18:24:35.929Z,102117.25
2022-12-26T18:27:03.874Z,102133.03
2022-12-26T18:29:31.946Z,102136.41
2022-12-26T18:32:00.034Z,102123.13
2022-12-26T18:34:28.805Z,102137.94
2022-12-26T18:36:56.720Z,102146.72
2022-12-26T18:39:25.223Z,102141.41
2022-12-26T18:41:54.494Z,102140.47
2022-12-26T18:44:22.461Z,102147.50
2022-12-26T18:46:51.844Z,102138.59
2022-12-26T18:49:19.738Z,102140.41
2022-12-26T18:51:47.655Z,102148.28
2022-12-26T18:54:15.740Z,102145.50
2022-12-26T18:56:43.804Z,102151.78
2022-12-26T18:59:13.504Z,102152.72
2022-12-26T19:01:41.774Z,102158.13
2022-12-26T19:04:10.522Z,102147.63
2022-12-26T19:06:38.576Z,102154.69
2022-12-26T19:09:06.565Z,102162.63
2022-12-26T19:11:34.701Z,102172.41
2022-12-26T19:14:02.627Z,102168.00
2022-12-26T19:16:32.004Z,102168.06
2022-12-26T19:19:00.366Z,102167.22
2022-12-26T19:21:28.294Z,102170.78
2022-12-26T19:23:56.265Z,102148.03
2022-12-26T19:26:24.186Z,102177.00
2022-12-26T19:28:52.520Z,102175.13
2022-12-26T19:31:20.757Z,102186.59
2022-12-26T19:33:50.086Z,102184.78
2022-12-26T19:36:17.974Z,102199.75
2022-12-26T19:38:45.854Z,102197.16
2022-12-26T19:41:14.577Z,102199.00
2022-12-26T19:43:42.807Z,102197.34
2022-12-26T19:46:12.278Z,102200.97
2022-12-26T19:48:40.500Z,102195.72
2022-12-26T19:51:11.801Z,102205.47
2022-12-26T19:53:39.764Z,102197.53
2022-12-26T19:56:08.823Z,102202.84
2022-12-26T19:58:36.863Z,102194.00
2022-12-26T20:01:08.767Z,102201.03
2022-12-26T20:03:36.962Z,102204.53
2022-12-26T20:06:11.082Z,102208.91
2022-12-26T20:08:39.074Z,102203.44
2022-12-26T20:11:07.590Z,102198.88
2022-12-26T20:13:35.757Z,102209.47
2022-12-26T20:16:04.295Z,102200.66
2022-12-26T20:18:32.231Z,102219.53
2022-12-26T20:21:00.115Z,102212.66
2022-12-26T20:23:29.467Z,102212.84
2022-12-26T20:25:59.398Z,102218.28
2022-12-26T20:28:27.308Z,102234.28
2022-12-26T20:30:59.576Z,102225.50
2022-12-26T20:33:27.489Z,102229.91
2022-12-26T20:36:02.744Z,102226.44
2022-12-26T20:38:32.077Z,102222.81
2022-12-26T20:40:59.989Z,102226.41
2022-12-26T20:43:28.126Z,102226.31
2022-12-26T20:46:00.708Z,102239.50
2022-12-26T20:48:30.963Z,102239.34
2022-12-26T20:50:59.077Z,102240.09
2022-12-26T20:53:27.124Z,102246.13
2022-12-26T20:55:57.452Z,102240.66
2022-12-26T20:58:25.708Z,102236.91
2022-12-26T21:00:57.071Z,102242.13
2022-12-26T21:03:25.114Z,102246.41
2022-12-26T21:05:53.111Z,102248.38
2022-12-26T21:08:20.955Z,102253.84
2022-12-26T21:10:48.877Z,102261.03
2022-12-26T21:13:18.126Z,102262.06
2022-12-26T21:15:46.026Z,102273.59
2022-12-26T21:18:13.950Z,102270.13
2022-12-26T21:20:41.916Z,102264.94
2022-12-26T21:23:09.973Z,102271.28
2022-12-26T21:25:37.910Z,102265.16
2022-12-26T21:28:06.171Z,102263.59
2022-12-26T21:30:35.502Z,102269.06
2022-12-26T21:33:03.430Z,102266.59
2022-12-26T21:35:31.656Z,102271.91
2022-12-26T21:37:59.580Z,102273.81
2022-12-26T21:40:27.848Z,102274.78
2022-12-26T21:42:57.083Z,102272.19
2022-12-26T21:45:26.355Z,102276.66
2022-12-26T21:47:55.804Z,102274.09
2022-12-26T21:50:23.671Z,102274.13
2022-12-26T21:52:51.566Z,102276.81
2022-12-26T21:55:27.565Z,102267.06
2022-12-26T21:57:55.610Z,102263.56
2022-12-26T22:00:23.581Z,102282.25
2022-12-26T22:03:08.645Z,102280.50
2022-12-26T22:05:38.933Z,102281.44
2022-12-26T22:08:08.410Z,102280.56
2022-12-26T22:10:59.823Z,102287.66
2022-12-26T22:13:27.922Z,102280.63
2022-12-26T22:16:07.101Z,102280.63
2022-12-26T22:18:37.371Z,102278.00
2022-12-26T22:21:08.994Z,102288.59
2022-12-26T22:23:37.297Z,102291.13
2022-12-26T22:26:05.256Z,102281.25
2022-12-26T22:28:33.162Z,102286.38
2022-12-26T22:31:01.507Z,102278.28
2022-12-26T22:33:29.674Z,102292.97
2022-12-26T22:36:03.929Z,102302.56
2022-12-26T22:38:33.249Z,102270.91
2022-12-26T22:41:01.309Z,102293.84
2022-12-26T22:43:29.349Z,102296.59
2022-12-26T22:45:57.593Z,102295.91
2022-12-26T22:48:25.618Z,102296.91
2022-12-26T22:50:54.641Z,102291.78
2022-12-26T22:53:24.223Z,102298.06
2022-12-26T22:55:54.357Z,102302.59
2022-12-26T22:58:22.705Z,102308.88
2022-12-26T23:00:50.713Z,102312.41
2022-12-26T23:03:19.222Z,102305.34
2022-12-26T23:05:47.534Z,102308.75
2022-12-26T23:08:17.253Z,102314.03
2022-12-26T23:10:46.031Z,102304.31
2022-12-26T23:13:16.117Z,102309.53
2022-12-26T23:15:49.183Z,102299.72
2022-12-26T23:18:37.568Z,102308.53
2022-12-26T23:21:26.661Z,102314.69
2022-12-26T23:23:54.569Z,102314.66
2022-12-26T23:26:22.602Z,102312.84
2022-12-26T23:29:09.594Z,102305.69
2022-12-26T23:31:37.573Z,102299.56
2022-12-26T23:34:05.630Z,102297.78
2022-12-26T23:36:33.628Z,102289.88
2022-12-26T23:39:01.797Z,102299.53
2022-12-26T23:41:29.717Z,102312.75
2022-12-26T23:43:59.006Z,102324.19
2022-12-26T23:46:26.898Z,102340.16
2022-12-26T23:48:54.835Z,102334.06
2022-12-26T23:51:22.773Z,102338.69
2022-12-26T23:53:50.676Z,102323.78
2022-12-26T23:56:18.576Z,102318.50
2022-12-26T23:58:46.596Z,102326.50
